createdAt,value
2019-06-27T00:04:01.721Z,14.5
2019-06-27T00:09:31.558Z,14.4
2019-06-27T00:15:00.375Z,14.4
2019-06-27T00:20:29.093Z,14.4
2019-06-27T00:25:59.006Z,14.4
2019-06-27T00:47:55.158Z,14.4
2019-06-27T00:53:24.939Z,14.4
2019-06-27T00:58:53.743Z,14.3
2019-06-27T01:04:23.564Z,14.2
2019-06-27T01:09:52.321Z,14.2
2019-06-27T01:31:48.725Z,14.3
2019-06-27T01:37:17.874Z,14.3
2019-06-27T01:42:46.006Z,14.2
2019-06-27T01:48:16.287Z,14.2
2019-06-27T01:53:44.667Z,14.1
2019-06-27T02:15:40.769Z,14.2
2019-06-27T02:26:39.250Z,14.1
2019-06-27T02:32:08.029Z,14.1
2019-06-27T02:37:37.838Z,14
2019-06-27T02:59:34.919Z,14.2
2019-06-27T03:05:03.703Z,14.2
2019-06-27T03:10:33.560Z,14.2
2019-06-27T03:16:02.246Z,14.1
2019-06-27T03:21:32.031Z,14.1
2019-06-27T03:43:29.160Z,14.1
2019-06-27T03:48:59.812Z,14.1
2019-06-27T03:54:27.705Z,14.1
2019-06-27T03:59:57.412Z,14
2019-06-27T04:05:27.185Z,14.1
2019-06-27T04:27:23.384Z,14.1
2019-06-27T04:32:53.071Z,14.2
2019-06-27T04:38:22.871Z,14.2
2019-06-27T04:43:52.607Z,14.3
2019-06-27T04:49:21.536Z,14.3
2019-06-27T05:11:19.695Z,14.5
2019-06-27T05:16:48.500Z,14.5
2019-06-27T05:22:17.315Z,14.5
2019-06-27T05:27:46.096Z,14.5
2019-06-27T05:33:14.930Z,14.5
2019-06-27T05:55:12.247Z,14.6
2019-06-27T06:00:41.622Z,14.7
2019-06-27T06:06:09.857Z,14.8
2019-06-27T06:11:38.898Z,14.8
2019-06-27T06:17:09.701Z,14.8
2019-06-27T06:39:07.915Z,15
2019-06-27T06:44:36.759Z,15
2019-06-27T06:50:06.376Z,14.9
2019-06-27T06:55:35.491Z,14.9
2019-06-27T07:01:04.351Z,14.9
2019-06-27T07:23:00.810Z,15
2019-06-27T07:28:29.722Z,15.1
2019-06-27T07:33:58.532Z,15.1
2019-06-27T07:44:57.489Z,15.2
2019-06-27T08:06:52.959Z,15.4
2019-06-27T08:12:22.854Z,15.5
2019-06-27T08:17:52.683Z,15.6
2019-06-27T08:23:22.719Z,15.6
2019-06-27T08:28:53.194Z,15.6
2019-06-27T08:50:49.466Z,16
2019-06-27T08:56:18.430Z,16
2019-06-27T09:01:47.372Z,16.1
2019-06-27T09:07:17.216Z,16.1
2019-06-27T09:12:46.242Z,16.2
2019-06-27T09:34:44.362Z,16.5
2019-06-27T09:40:13.259Z,16.6
2019-06-27T09:45:42.317Z,16.6
2019-06-27T09:51:14.438Z,16.6
2019-06-27T09:56:41.472Z,16.6
2019-06-27T10:18:41.460Z,16.6
2019-06-27T10:24:31.831Z,16.5
2019-06-27T10:29:39.467Z,16.6
2019-06-27T10:35:08.495Z,16.7
2019-06-27T10:40:37.622Z,16.9
2019-06-27T11:02:36.802Z,16.9
2019-06-27T11:08:04.993Z,16.9
2019-06-27T11:13:35.012Z,16.9
2019-06-27T11:19:04.991Z,16.8
2019-06-27T11:24:35.035Z,16.8
2019-06-27T11:46:31.256Z,16.8
2019-06-27T11:52:00.320Z,16.8
2019-06-27T11:57:29.367Z,16.7
2019-06-27T12:03:03.655Z,16.7
2019-06-27T12:08:29.436Z,16.7
2019-06-27T12:30:27.551Z,16.7
2019-06-27T12:35:56.516Z,16.7
2019-06-27T12:41:25.517Z,16.7
2019-06-27T12:46:54.762Z,16.7
2019-06-27T12:52:23.778Z,16.9
2019-06-27T13:14:21.133Z,17.1
2019-06-27T13:19:50.138Z,17
2019-06-27T13:25:20.138Z,17
2019-06-27T13:30:49.130Z,17.1
2019-06-27T13:36:19.630Z,17.2
2019-06-27T13:58:16.676Z,17.1
2019-06-27T14:03:49.435Z,17.2
2019-06-27T14:09:22.672Z,17.4
2019-06-27T14:14:59.058Z,17.4
2019-06-27T14:25:46.064Z,17.5
2019-06-27T14:31:15.208Z,17.5
2019-06-27T14:36:45.363Z,17.6
2019-06-27T14:42:14.743Z,17.8
2019-06-27T14:47:45.058Z,17.9
2019-06-27T14:58:45.139Z,17.9
2019-06-27T15:04:14.260Z,17.9
2019-06-27T15:09:43.586Z,17.9
2019-06-27T15:15:12.548Z,17.9
2019-06-27T15:20:42.681Z,17.9
2019-06-27T15:26:11.846Z,17.9
2019-06-27T15:31:42.074Z,17.9
2019-06-27T15:42:40.412Z,18
2019-06-27T15:48:10.604Z,18
2019-06-27T15:53:40.665Z,18
2019-06-27T15:59:10.891Z,18
2019-06-27T16:04:40.250Z,18
2019-06-27T16:10:09.204Z,17.9
2019-06-27T16:15:39.482Z,17.9
2019-06-27T16:21:08.635Z,18
2019-06-27T16:26:38.777Z,18
2019-06-27T16:32:07.945Z,17.9
2019-06-27T16:37:37.393Z,17.8
2019-06-27T16:43:07.370Z,17.5
2019-06-27T16:48:36.786Z,17.4
2019-06-27T16:54:05.369Z,17.3
2019-06-27T16:59:36.745Z,17.2
2019-06-27T17:05:05.532Z,17.1
2019-06-27T17:10:34.583Z,17.1
2019-06-27T17:16:03.667Z,17.1
2019-06-27T17:21:32.776Z,17
2019-06-27T17:27:01.895Z,16.9
2019-06-27T17:38:01.820Z,16.8
2019-06-27T17:43:30.956Z,16.7
2019-06-27T17:49:01.618Z,16.6
2019-06-27T17:54:31.192Z,16.5
2019-06-27T18:00:00.093Z,16.4
2019-06-27T18:05:28.934Z,16.4
2019-06-27T18:10:59.015Z,16.3
2019-06-27T18:16:27.899Z,16.2
2019-06-27T18:21:57.858Z,16.1
2019-06-27T18:27:27.884Z,15.9
2019-06-27T18:32:57.823Z,15.8
2019-06-27T18:38:26.781Z,15.7
2019-06-27T18:43:56.707Z,15.6
2019-06-27T18:49:26.534Z,15.5
2019-06-27T18:54:55.373Z,15.4
2019-06-27T19:00:25.321Z,15.3
2019-06-27T19:05:54.257Z,15.3
2019-06-27T19:11:23.054Z,15.2
2019-06-27T19:16:52.917Z,15.2
2019-06-27T19:22:22.740Z,15.2
2019-06-27T19:27:51.769Z,15.1
2019-06-27T19:33:20.496Z,15
2019-06-27T19:38:50.358Z,14.9
2019-06-27T19:44:19.153Z,14.8
2019-06-27T19:49:49.033Z,14.7
2019-06-27T19:55:17.913Z,14.7
2019-06-27T20:00:46.596Z,14.7
2019-06-27T20:06:15.420Z,14.7
2019-06-27T20:11:44.405Z,14.7
2019-06-27T20:17:13.278Z,14.7
2019-06-27T20:22:42.883Z,14.7
2019-06-27T20:28:12.198Z,14.7
2019-06-27T20:33:41.588Z,14.7
2019-06-27T20:39:11.339Z,14.7
2019-06-27T20:44:41.047Z,14.7
2019-06-27T20:50:10.139Z,14.8
2019-06-27T20:55:38.851Z,14.8
2019-06-27T21:01:07.907Z,14.8
2019-06-27T21:06:36.602Z,14.8
2019-06-27T21:12:06.451Z,14.8
2019-06-27T21:17:35.737Z,14.7
2019-06-27T21:23:05.013Z,14.6
2019-06-27T21:28:33.863Z,14.6
2019-06-27T21:34:03.630Z,14.5
2019-06-27T21:39:33.347Z,14.5
2019-06-27T21:45:02.520Z,14.6
2019-06-27T21:50:31.934Z,14.6
2019-06-27T21:56:01.773Z,14.6
2019-06-27T22:01:30.644Z,14.5
2019-06-27T22:07:00.522Z,14.4
2019-06-27T22:12:30.243Z,14.3
2019-06-27T22:18:00.271Z,14.3
2019-06-27T22:23:30.016Z,14.2
2019-06-27T22:28:59.599Z,14.1
2019-06-27T22:34:28.411Z,14.1
2019-06-27T22:39:57.955Z,14
2019-06-27T22:45:26.762Z,13.9
2019-06-27T22:50:56.415Z,13.9
2019-06-27T22:56:26.137Z,13.8
2019-06-27T23:01:55.936Z,13.8
2019-06-27T23:12:54.417Z,13.6
2019-06-27T23:18:25.519Z,13.5
2019-06-27T23:23:52.728Z,13.5
2019-06-27T23:29:21.398Z,13.5
2019-06-27T23:34:50.199Z,13.5
2019-06-27T23:40:18.766Z,13.4
2019-06-27T23:45:48.467Z,13.4
2019-06-27T23:51:17.155Z,13.3
2019-06-27T23:56:45.770Z,13.2
